Time;durP1;ratioP1;P1;durP2;ratioP2;P2;SDS_P1;SDS_P2;PMS_P1;PMS_P2;Temp;Humidity;BMP_temperature;BMP_pressure;BME280_temperature;BME280_humidity;BME280_pressure;Samples;Min_cycle;Max_cycle;Signal;HPM_P1;HPM_P2
2021/10/23 00:01:02;;;;;;;20.27;9.65;;;;;;;9.13;100.00;95347.16;5104563;27;20075;-72
2021/10/23 00:03:29;;;;;;;21.00;10.95;;;;;;;9.26;100.00;95346.25;5082636;28;20051;-72
2021/10/23 00:05:55;;;;;;;16.98;8.95;;;;;;;9.44;100.00;95348.94;5105974;27;20050;-72
2021/10/23 00:08:22;;;;;;;19.88;9.80;;;;;;;9.57;100.00;95348.03;5104282;27;20055;-71
2021/10/23 00:10:49;;;;;;;18.00;10.48;;;;;;;9.62;100.00;95334.41;5086620;28;20730;-72
2021/10/23 00:13:16;;;;;;;18.52;10.13;;;;;;;9.66;100.00;95336.38;5103428;27;20500;-72
2021/10/23 00:15:43;;;;;;;20.20;10.18;;;;;;;9.64;100.00;95338.38;5104287;27;20046;-71
2021/10/23 00:18:09;;;;;;;19.55;10.98;;;;;;;9.57;100.00;95338.44;5105789;27;20063;-72
2021/10/23 00:20:36;;;;;;;19.67;10.73;;;;;;;9.69;100.00;95346.34;5104548;27;20119;-72
2021/10/23 00:23:03;;;;;;;17.80;9.27;;;;;;;9.35;100.00;95330.19;5103817;28;20405;-72
2021/10/23 00:25:30;;;;;;;18.30;9.55;;;;;;;9.18;100.00;95344.69;5102366;28;20047;-72
2021/10/23 00:27:57;;;;;;;15.93;8.80;;;;;;;9.15;100.00;95345.13;5104853;27;20063;-72
2021/10/23 00:30:24;;;;;;;12.98;8.30;;;;;;;9.25;100.00;95345.44;5088240;28;20047;-72
2021/10/23 00:32:52;;;;;;;16.38;9.13;;;;;;;9.31;100.00;95334.22;5107125;27;20036;-72
2021/10/23 00:35:18;;;;;;;15.70;8.00;;;;;;;9.45;100.00;95349.72;5103096;28;20051;-73
2021/10/23 00:37:45;;;;;;;18.45;9.88;;;;;;;9.50;100.00;95342.09;5106721;27;22604;-71
2021/10/23 00:40:12;;;;;;;14.73;7.80;;;;;;;9.50;100.00;95337.69;5105259;27;20040;-72
2021/10/23 00:42:39;;;;;;;16.38;7.97;;;;;;;9.59;100.00;95351.22;5105258;27;20046;-72
2021/10/23 00:45:06;;;;;;;17.40;8.20;;;;;;;9.60;100.00;95347.63;5106412;27;20047;-71
2021/10/23 00:47:33;;;;;;;15.63;8.95;;;;;;;9.61;100.00;95344.00;5103517;27;20047;-72
2021/10/23 00:50:00;;;;;;;19.75;8.05;;;;;;;9.64;100.00;95338.38;5102594;28;20679;-72
2021/10/23 00:52:27;;;;;;;17.02;9.05;;;;;;;9.64;100.00;95335.78;5104133;27;20443;-72
2021/10/23 00:54:54;;;;;;;17.15;9.43;;;;;;;9.57;100.00;95322.03;5089997;28;20427;-72
2021/10/23 00:57:21;;;;;;;20.30;10.40;;;;;;;9.48;100.00;95325.91;5104681;27;20043;-71
2021/10/23 00:59:48;;;;;;;15.75;9.20;;;;;;;9.43;100.00;95315.34;5107603;27;20051;-71
2021/10/23 01:02:15;;;;;;;17.08;8.75;;;;;;;9.08;100.00;95297.59;5104373;27;20557;-72
2021/10/23 01:04:43;;;;;;;21.33;9.00;;;;;;;9.29;100.00;95323.25;5106021;27;20047;-72
2021/10/23 01:07:09;;;;;;;17.40;10.63;;;;;;;9.34;100.00;95318.19;5103782;28;20093;-72
2021/10/23 01:09:40;;;;;;;16.67;9.10;;;;;;;9.41;100.00;95318.16;5104019;27;20048;-72
2021/10/23 01:12:08;;;;;;;17.60;9.32;;;;;;;9.36;100.00;95311.00;5105241;28;20428;-71
2021/10/23 01:14:41;;;;;;;19.48;10.18;;;;;;;9.31;100.00;95308.22;5105501;28;20048;-72
2021/10/23 01:17:09;;;;;;;18.25;9.30;;;;;;;9.31;100.00;95313.44;5101511;28;20047;-72
2021/10/23 01:19:36;;;;;;;17.20;9.73;;;;;;;9.42;100.00;95318.94;5102228;28;20040;-71
2021/10/23 01:22:04;;;;;;;16.85;9.10;;;;;;;9.44;100.00;95312.53;5102772;28;21011;-72
2021/10/23 01:24:31;;;;;;;21.80;9.88;;;;;;;9.53;100.00;95315.69;5105098;28;20052;-72
2021/10/23 01:26:58;;;;;;;19.15;9.80;;;;;;;9.56;100.00;95320.44;5104927;28;20039;-71
2021/10/23 01:29:25;;;;;;;18.65;10.60;;;;;;;9.60;100.00;95310.41;5105266;28;20516;-72
2021/10/23 01:31:54;;;;;;;19.42;9.65;;;;;;;9.61;100.00;95312.78;5082397;28;20055;-72
2021/10/23 01:34:23;;;;;;;16.35;10.07;;;;;;;9.65;100.00;95319.19;5102073;28;20055;-72
2021/10/23 01:36:55;;;;;;;18.55;8.65;;;;;;;9.65;100.00;95313.97;5103867;28;20043;-72
2021/10/23 01:39:23;;;;;;;14.85;8.68;;;;;;;9.65;100.00;95316.59;5103109;28;20052;-72
2021/10/23 01:41:51;;;;;;;15.43;8.75;;;;;;;9.64;100.00;95304.56;5102086;28;20079;-72
2021/10/23 01:44:22;;;;;;;17.48;9.10;;;;;;;9.67;100.00;95301.56;5108645;28;20704;-72
2021/10/23 01:46:48;;;;;;;16.50;8.05;;;;;;;9.68;100.00;95317.94;5101671;28;20043;-72
2021/10/23 01:49:15;;;;;;;20.40;9.23;;;;;;;9.62;100.00;95314.41;5101321;28;20054;-72
2021/10/23 01:51:42;;;;;;;21.60;11.20;;;;;;;9.45;100.00;95313.31;5102527;27;20508;-72
2021/10/23 01:54:10;;;;;;;15.80;8.70;;;;;;;9.45;100.00;95313.31;5089170;28;20097;-72
2021/10/23 01:56:40;;;;;;;17.17;9.32;;;;;;;9.50;100.00;95305.69;5109867;27;20046;-72
2021/10/23 01:59:07;;;;;;;25.83;13.05;;;;;;;9.48;100.00;95320.72;5108559;27;20042;-72
2021/10/23 02:01:35;;;;;;;20.10;11.05;;;;;;;9.53;100.00;95320.88;5106684;27;20501;-72
2021/10/23 02:04:02;;;;;;;20.10;9.40;;;;;;;9.57;100.00;95322.81;5109504;27;20043;-72
2021/10/23 02:06:29;;;;;;;22.10;10.60;;;;;;;9.55;100.00;95316.25;5105665;27;20051;-72
2021/10/23 02:08:55;;;;;;;20.45;11.00;;;;;;;9.53;100.00;95310.47;5104681;27;20047;-72
2021/10/23 02:11:22;;;;;;;15.52;8.80;;;;;;;9.50;100.00;95301.28;5105306;27;20040;-72
2021/10/23 02:13:49;;;;;;;17.35;8.68;;;;;;;9.38;100.00;95314.19;5106190;27;20040;-73
2021/10/23 02:16:16;;;;;;;17.65;9.52;;;;;;;9.41;100.00;95312.16;5105850;27;20574;-72
2021/10/23 02:18:43;;;;;;;19.25;9.93;;;;;;;9.34;100.00;95318.19;5105103;28;20038;-72
2021/10/23 02:21:11;;;;;;;17.98;10.98;;;;;;;9.33;100.00;95321.81;5106397;27;20047;-73
2021/10/23 02:23:39;;;;;;;19.00;9.02;;;;;;;9.30;100.00;95327.41;5108130;27;20047;-73
2021/10/23 02:26:06;;;;;;;16.63;9.10;;;;;;;9.32;100.00;95325.41;5104974;27;20042;-72
2021/10/23 02:28:33;;;;;;;16.83;9.13;;;;;;;9.24;100.00;95338.66;5108951;27;20040;-72
2021/10/23 02:31:01;;;;;;;23.17;11.90;;;;;;;9.11;100.00;95323.13;5106617;27;20492;-72
2021/10/23 02:33:28;;;;;;;25.00;12.05;;;;;;;9.20;100.00;95347.91;5104221;28;20052;-72
2021/10/23 02:35:55;;;;;;;21.73;11.38;;;;;;;9.17;100.00;95343.91;5104991;27;20051;-72
2021/10/23 02:38:22;;;;;;;20.38;10.00;;;;;;;9.04;100.00;95332.78;5106533;27;20450;-72
2021/10/23 02:40:49;;;;;;;19.92;10.80;;;;;;;9.04;100.00;95343.16;5106701;27;20847;-72
2021/10/23 02:43:15;;;;;;;19.42;10.07;;;;;;;9.08;100.00;95354.75;5105500;27;20043;-72
2021/10/23 02:45:44;;;;;;;18.83;9.93;;;;;;;8.97;100.00;95359.59;5104113;27;20036;-72
2021/10/23 02:48:11;;;;;;;15.07;8.77;;;;;;;8.82;100.00;95366.84;5104815;27;20036;-72
2021/10/23 02:50:38;;;;;;;17.25;9.15;;;;;;;8.74;100.00;95354.91;5091142;28;20047;-72
2021/10/23 02:53:04;;;;;;;14.50;8.15;;;;;;;8.67;100.00;95361.13;5106382;27;20043;-72
2021/10/23 02:55:32;;;;;;;16.02;8.70;;;;;;;8.54;100.00;95365.38;5107236;27;20039;-71
2021/10/23 02:57:58;;;;;;;12.70;7.25;;;;;;;8.57;100.00;95364.97;5105387;27;20124;-72
2021/10/23 03:00:26;;;;;;;14.23;8.05;;;;;;;8.58;100.00;95360.56;5109476;27;20054;-72
2021/10/23 03:02:53;;;;;;;14.75;9.55;;;;;;;8.56;100.00;95358.16;5106244;27;20060;-71
2021/10/23 03:05:20;;;;;;;17.77;8.52;;;;;;;8.50;100.00;95353.81;5104933;27;20043;-72
2021/10/23 03:07:47;;;;;;;17.02;9.20;;;;;;;8.52;100.00;95362.19;5103198;27;20040;-72
2021/10/23 03:10:14;;;;;;;12.55;7.57;;;;;;;8.44;100.00;95344.22;5083693;28;20069;-72
2021/10/23 03:12:41;;;;;;;15.98;8.15;;;;;;;8.49;100.00;95364.38;5104811;27;20092;-71
2021/10/23 03:15:08;;;;;;;17.42;7.93;;;;;;;8.40;100.00;95364.56;5101642;27;20047;-72
2021/10/23 03:17:35;;;;;;;16.40;9.60;;;;;;;8.41;100.00;95367.97;5104156;28;20055;-72
2021/10/23 03:20:03;;;;;;;19.08;8.30;;;;;;;8.36;100.00;95362.59;5107017;27;20051;-71
2021/10/23 03:22:30;;;;;;;19.40;8.95;;;;;;;8.38;100.00;95363.97;5106268;27;20043;-72
2021/10/23 03:24:56;;;;;;;19.13;9.93;;;;;;;8.38;100.00;95360.59;5105591;27;20474;-72
2021/10/23 03:27:23;;;;;;;17.80;9.00;;;;;;;8.34;100.00;95364.59;5102336;28;20443;-71
2021/10/23 03:29:50;;;;;;;17.60;9.80;;;;;;;8.33;100.00;95363.00;5104723;27;20059;-72
2021/10/23 03:32:17;;;;;;;16.83;9.68;;;;;;;8.36;100.00;95362.59;5102169;28;20043;-72
2021/10/23 03:34:45;;;;;;;17.80;9.05;;;;;;;8.37;100.00;95358.97;5105817;27;20069;-72
2021/10/23 03:37:12;;;;;;;17.65;9.25;;;;;;;8.39;100.00;95344.00;5101789;28;20519;-72
2021/10/23 03:39:40;;;;;;;17.33;9.20;;;;;;;8.38;100.00;95345.03;5106732;27;20043;-72
2021/10/23 03:42:07;;;;;;;19.02;9.30;;;;;;;8.50;100.00;95348.59;5104970;27;20053;-71
2021/10/23 03:44:34;;;;;;;14.15;8.98;;;;;;;8.61;100.00;95353.16;5086342;27;20036;-72
2021/10/23 03:47:01;;;;;;;23.13;9.68;;;;;;;8.67;100.00;95354.13;5105520;27;20048;-72
2021/10/23 03:49:28;;;;;;;16.90;10.00;;;;;;;8.69;100.00;95366.91;5103200;27;20036;-72
2021/10/23 03:51:55;;;;;;;23.80;10.50;;;;;;;8.67;100.00;95358.53;5101943;27;20512;-72
2021/10/23 03:54:22;;;;;;;17.30;9.80;;;;;;;8.71;100.00;95359.72;5103575;27;20064;-72
2021/10/23 03:56:49;;;;;;;19.75;9.82;;;;;;;8.65;100.00;95365.75;5103308;27;20100;-71
2021/10/23 03:59:16;;;;;;;24.00;9.93;;;;;;;8.71;100.00;95359.72;5104737;27;20055;-72
2021/10/23 04:01:43;;;;;;;18.48;10.18;;;;;;;8.73;100.00;95365.50;5104173;27;20491;-72
2021/10/23 04:04:10;;;;;;;20.38;11.02;;;;;;;8.69;100.00;95356.53;5101046;27;20040;-72
2021/10/23 04:06:38;;;;;;;23.88;12.32;;;;;;;8.67;100.00;95363.72;5105216;27;20499;-72
2021/10/23 04:09:05;;;;;;;24.50;11.30;;;;;;;8.57;100.00;95339.00;5103398;27;20039;-72
2021/10/23 04:11:32;;;;;;;18.63;10.25;;;;;;;8.71;100.00;95364.91;5103664;27;20110;-72
2021/10/23 04:13:59;;;;;;;23.00;11.88;;;;;;;8.70;100.00;95363.31;5105318;27;20043;-72
2021/10/23 04:16:25;;;;;;;20.65;10.73;;;;;;;8.74;100.00;95362.69;5101284;27;20381;-72
2021/10/23 04:18:52;;;;;;;20.95;10.23;;;;;;;8.78;100.00;95366.47;5102571;27;20031;-71
2021/10/23 04:21:19;;;;;;;23.55;11.77;;;;;;;8.51;100.00;95344.22;5104516;27;20031;-72
2021/10/23 04:23:46;;;;;;;20.30;11.13;;;;;;;8.58;100.00;95361.34;5103562;27;20044;-72
2021/10/23 04:26:13;;;;;;;22.45;11.93;;;;;;;8.41;100.00;95370.56;5106036;27;20493;-72
2021/10/23 04:28:40;;;;;;;22.77;11.40;;;;;;;8.27;100.00;95369.00;5101961;28;20597;-72
2021/10/23 04:31:06;;;;;;;22.48;10.68;;;;;;;8.36;100.00;95372.97;5105848;27;20428;-72
2021/10/23 04:33:33;;;;;;;23.95;11.27;;;;;;;8.42;100.00;95375.56;5104159;27;20043;-72
2021/10/23 04:36:00;;;;;;;22.13;11.15;;;;;;;8.44;100.00;95375.38;5105181;27;20088;-72
2021/10/23 04:38:27;;;;;;;21.58;11.77;;;;;;;8.26;100.00;95364.81;5102361;27;20042;-72
2021/10/23 04:40:54;;;;;;;18.23;11.02;;;;;;;8.36;100.00;95380.75;5083373;28;20108;-72
2021/10/23 04:43:21;;;;;;;25.52;12.80;;;;;;;8.43;100.00;95378.97;5101055;27;20048;-72
2021/10/23 04:45:47;;;;;;;20.92;11.02;;;;;;;8.52;100.00;95387.34;5083410;27;20079;-72
2021/10/23 04:48:14;;;;;;;24.60;10.95;;;;;;;8.58;100.00;95379.53;5104451;27;20493;-72
2021/10/23 04:50:41;;;;;;;19.35;10.75;;;;;;;8.52;100.00;95372.56;5103120;27;20517;-72
2021/10/23 04:53:08;;;;;;;27.15;13.07;;;;;;;8.56;100.00;95393.72;5088051;28;20056;-72
2021/10/23 04:55:34;;;;;;;21.55;11.73;;;;;;;8.52;100.00;95377.75;5102338;27;20040;-72
2021/10/23 04:58:01;;;;;;;22.67;10.63;;;;;;;8.42;100.00;95387.75;5100299;28;20036;-72
2021/10/23 05:00:28;;;;;;;18.08;10.70;;;;;;;8.44;100.00;95385.75;5101761;28;20104;-72
2021/10/23 05:02:55;;;;;;;24.13;10.73;;;;;;;8.53;100.00;95394.91;5101754;27;20052;-72
2021/10/23 05:05:22;;;;;;;19.27;11.05;;;;;;;8.53;100.00;95384.53;5099374;27;20038;-72
2021/10/23 05:07:49;;;;;;;19.98;11.48;;;;;;;8.61;100.00;95397.28;5100841;28;20038;-72
2021/10/23 05:10:16;;;;;;;26.30;12.73;;;;;;;8.66;100.00;95401.91;5102195;28;20051;-72
2021/10/23 05:12:43;;;;;;;21.38;11.38;;;;;;;8.61;100.00;95389.50;5102497;28;20040;-72
2021/10/23 05:15:09;;;;;;;24.17;12.45;;;;;;;8.72;100.00;95400.28;5100778;28;20493;-72
2021/10/23 05:17:36;;;;;;;23.58;11.20;;;;;;;8.75;100.00;95397.25;5102663;28;20036;-72
2021/10/23 05:20:04;;;;;;;23.70;13.10;;;;;;;8.78;100.00;95402.81;5103270;27;20043;-72
2021/10/23 05:22:31;;;;;;;27.85;14.50;;;;;;;8.79;100.00;95406.25;5107056;27;20035;-72
2021/10/23 05:24:58;;;;;;;25.05;14.63;;;;;;;8.82;100.00;95413.59;5102357;28;20043;-72
2021/10/23 05:27:25;;;;;;;22.17;12.65;;;;;;;8.84;100.00;95421.19;5101747;28;20063;-72
2021/10/23 05:29:52;;;;;;;20.05;12.43;;;;;;;8.89;100.00;95427.38;5104334;28;20050;-72
2021/10/23 05:32:19;;;;;;;25.00;12.55;;;;;;;8.93;100.00;95431.16;5101905;28;20046;-72
2021/10/23 05:34:46;;;;;;;23.13;12.65;;;;;;;8.95;100.00;95454.34;5105063;28;20509;-72
2021/10/23 05:37:13;;;;;;;30.13;13.73;;;;;;;9.01;100.00;95447.53;5104361;28;20044;-72
2021/10/23 05:39:40;;;;;;;29.42;14.88;;;;;;;9.02;100.00;95446.50;5100565;28;20508;-72
2021/10/23 05:42:08;;;;;;;28.50;15.80;;;;;;;9.10;100.00;95446.28;5106967;28;20504;-71
2021/10/23 05:44:34;;;;;;;29.48;16.60;;;;;;;9.12;100.00;95441.69;5101926;28;20036;-72
2021/10/23 05:47:01;;;;;;;33.33;15.68;;;;;;;9.24;100.00;95453.03;5102801;28;20047;-72
2021/10/23 05:49:28;;;;;;;41.40;20.25;;;;;;;9.04;100.00;95447.09;5105188;28;20497;-72
2021/10/23 05:51:55;;;;;;;41.72;23.23;;;;;;;9.04;100.00;95457.50;5102597;28;20043;-72
2021/10/23 05:54:22;;;;;;;40.45;22.33;;;;;;;9.22;100.00;95462.84;5104768;28;22081;-72
2021/10/23 05:56:48;;;;;;;38.05;21.38;;;;;;;9.25;100.00;95453.81;5103145;28;20051;-72
2021/10/23 05:59:15;;;;;;;37.33;18.92;;;;;;;9.26;100.00;95455.44;5103773;28;20504;-72
2021/10/23 06:01:47;;;;;;;42.88;26.35;;;;;;;9.34;100.00;95468.97;5104333;28;20436;-72
2021/10/23 06:04:15;;;;;;;48.47;28.92;;;;;;;9.41;100.00;95461.16;5108906;28;20741;-72
2021/10/23 06:06:44;;;;;;;52.75;30.38;;;;;;;9.56;100.00;95471.25;5105738;28;20079;-72
2021/10/23 06:09:11;;;;;;;44.00;24.10;;;;;;;9.62;100.00;95473.03;5088252;28;20044;-72
2021/10/23 06:11:38;;;;;;;37.15;21.38;;;;;;;9.69;100.00;95475.63;5082559;28;20484;-72
2021/10/23 06:14:05;;;;;;;30.92;18.42;;;;;;;9.75;100.00;95472.97;5102799;28;20042;-72
2021/10/23 06:16:31;;;;;;;20.75;13.93;;;;;;;9.83;100.00;95481.50;5103010;28;20044;-72
2021/10/23 06:18:58;;;;;;;22.35;12.20;;;;;;;9.89;100.00;95483.28;5101718;28;20039;-72
2021/10/23 06:21:25;;;;;;;22.35;11.68;;;;;;;9.98;100.00;95478.63;5101121;28;20046;-72
2021/10/23 06:23:52;;;;;;;21.88;12.15;;;;;;;10.02;100.00;95483.19;5102162;28;20035;-72
2021/10/23 06:26:19;;;;;;;75.00;30.25;;;;;;;10.01;100.00;95463.41;5102107;28;20104;-72
2021/10/23 06:28:45;;;;;;;164.02;63.58;;;;;;;10.18;100.00;95473.28;5105498;28;20035;-72
2021/10/23 06:31:12;;;;;;;95.95;38.95;;;;;;;10.30;100.00;95474.19;5113440;28;20043;-72
2021/10/23 06:33:39;;;;;;;44.47;21.08;;;;;;;10.38;100.00;95484.34;5083194;28;20394;-72
2021/10/23 06:36:06;;;;;;;27.10;13.05;;;;;;;10.47;100.00;95477.88;5102137;28;20076;-72
2021/10/23 06:38:33;;;;;;;26.65;14.57;;;;;;;10.64;100.00;95490.34;5108141;27;20044;-72
2021/10/23 06:41:00;;;;;;;22.33;13.85;;;;;;;10.80;100.00;95497.59;5109083;27;20119;-72
2021/10/23 06:43:27;;;;;;;21.23;13.20;;;;;;;10.97;100.00;95507.47;5076886;28;20040;-72
2021/10/23 06:45:54;;;;;;;21.45;11.68;;;;;;;11.14;100.00;95512.91;5103346;27;20058;-71
2021/10/23 06:48:21;;;;;;;20.70;11.02;;;;;;;11.31;100.00;95513.09;5105594;27;20036;-70
2021/10/23 06:50:48;;;;;;;23.48;12.85;;;;;;;11.41;100.00;95518.63;5103925;27;20047;-71
2021/10/23 06:53:15;;;;;;;35.45;16.67;;;;;;;11.42;100.00;95520.22;5106284;27;20039;-71
2021/10/23 06:55:42;;;;;;;24.92;14.30;;;;;;;11.49;100.00;95513.13;5106424;27;20485;-72
2021/10/23 06:58:09;;;;;;;26.55;14.77;;;;;;;11.53;100.00;95501.22;5106726;27;20141;-73
2021/10/23 07:00:36;;;;;;;23.67;14.30;;;;;;;11.57;100.00;95502.34;5103956;27;20048;-73
2021/10/23 07:03:03;;;;;;;22.50;12.45;;;;;;;11.72;100.00;95507.22;5104334;27;20071;-72
2021/10/23 07:05:31;;;;;;;20.45;12.00;;;;;;;11.86;100.00;95516.41;5106417;27;20043;-73
2021/10/23 07:07:58;;;;;;;23.52;12.13;;;;;;;11.81;100.00;95502.44;5101345;27;20058;-72
2021/10/23 07:10:26;;;;;;;25.67;13.15;;;;;;;11.91;100.00;95523.63;5098798;27;20089;-73
2021/10/23 07:12:53;;;;;;;23.85;12.82;;;;;;;11.98;100.00;95528.78;5087469;28;20055;-73
2021/10/23 07:15:20;;;;;;;21.30;11.55;;;;;;;12.14;100.00;95532.56;5104838;27;20047;-72
2021/10/23 07:17:47;;;;;;;20.08;11.27;;;;;;;12.14;100.00;95528.13;5104041;27;20116;-73
2021/10/23 07:20:14;;;;;;;18.55;10.88;;;;;;;12.15;100.00;95539.38;5100771;27;20093;-71
2021/10/23 07:22:41;;;;;;;21.17;10.65;;;;;;;12.12;100.00;95539.81;5102553;27;20139;-71
2021/10/23 07:25:08;;;;;;;20.00;11.63;;;;;;;12.18;100.00;95529.28;5105508;27;20093;-72
2021/10/23 07:27:36;;;;;;;18.58;10.40;;;;;;;12.36;100.00;95535.44;5102872;27;20043;-73
2021/10/23 07:30:09;;;;;;;20.92;11.68;;;;;;;12.51;99.84;95537.63;5105236;27;20036;-73
2021/10/23 07:32:41;;;;;;;20.48;11.57;;;;;;;12.48;99.87;95532.84;5105498;27;20052;-73
2021/10/23 07:35:09;;;;;;;22.20;12.32;;;;;;;12.49;100.00;95539.66;5104737;27;20047;-73
2021/10/23 07:37:36;;;;;;;23.83;12.88;;;;;;;12.60;98.41;95546.72;5104722;27;20413;-72
2021/10/23 07:40:05;;;;;;;19.73;12.13;;;;;;;12.54;99.46;95531.97;5107516;27;20467;-72
2021/10/23 07:42:32;;;;;;;17.80;10.48;;;;;;;12.59;99.08;95532.09;5103704;27;20059;-72
2021/10/23 07:45:00;;;;;;;19.60;10.68;;;;;;;12.74;98.06;95524.56;5086617;28;20120;-71
2021/10/23 07:47:28;;;;;;;28.85;12.50;;;;;;;12.91;97.50;95542.19;5105349;27;20039;-73
2021/10/23 07:49:55;;;;;;;26.35;14.02;;;;;;;13.06;96.44;95544.38;5102256;27;20043;-72
2021/10/23 07:52:22;;;;;;;32.15;15.02;;;;;;;13.10;96.08;95541.03;5103889;27;20568;-73
2021/10/23 07:54:49;;;;;;;22.30;13.35;;;;;;;13.16;93.86;95540.16;5106546;27;20043;-73
2021/10/23 07:57:17;;;;;;;23.15;13.07;;;;;;;13.19;94.52;95539.66;5105528;27;20048;-73
2021/10/23 07:59:44;;;;;;;23.08;13.15;;;;;;;13.11;94.78;95537.41;5102265;28;20035;-74
2021/10/23 08:02:10;;;;;;;22.90;12.65;;;;;;;13.09;94.99;95539.47;5104041;27;20047;-73
2021/10/23 08:04:38;;;;;;;23.98;12.93;;;;;;;13.36;92.42;95544.22;5105310;27;20043;-73
2021/10/23 08:07:08;;;;;;;26.33;13.07;;;;;;;13.46;92.78;95549.66;5084036;28;20048;-73
2021/10/23 08:09:36;;;;;;;25.20;14.10;;;;;;;13.60;91.06;95554.66;5103785;27;20092;-72
2021/10/23 08:12:04;;;;;;;23.08;15.02;;;;;;;13.70;89.93;95544.38;5103825;27;20507;-73
2021/10/23 08:14:33;;;;;;;24.50;12.90;;;;;;;13.81;88.62;95551.41;5106161;27;20043;-72
2021/10/23 08:17:00;;;;;;;21.98;12.13;;;;;;;13.77;89.12;95529.31;5101919;27;20044;-72
2021/10/23 08:19:27;;;;;;;25.10;12.90;;;;;;;13.93;88.68;95536.41;5099804;28;20032;-72
2021/10/23 08:21:54;;;;;;;23.50;13.02;;;;;;;14.09;88.15;95547.19;5104812;27;20044;-72
2021/10/23 08:24:21;;;;;;;20.25;12.07;;;;;;;14.12;87.03;95531.00;5104729;27;20047;-73
2021/10/23 08:26:48;;;;;;;20.52;11.23;;;;;;;14.27;86.65;95544.34;5104634;28;20084;-73
2021/10/23 08:29:15;;;;;;;20.40;11.57;;;;;;;14.45;86.46;95553.03;5105459;27;20047;-73
2021/10/23 08:31:42;;;;;;;17.05;9.65;;;;;;;14.63;85.49;95552.84;5107680;27;20496;-73
2021/10/23 08:34:10;;;;;;;21.95;12.07;;;;;;;14.60;85.67;95550.69;5087591;27;20066;-74
2021/10/23 08:36:37;;;;;;;25.55;13.40;;;;;;;14.52;86.67;95545.81;5105871;27;20039;-73
2021/10/23 08:39:05;;;;;;;20.73;11.27;;;;;;;14.38;86.47;95557.63;5102635;27;20501;-74
2021/10/23 08:41:32;;;;;;;22.98;14.30;;;;;;;14.21;86.75;95550.56;5104201;27;20039;-73
2021/10/23 08:44:04;;;;;;;23.42;13.30;;;;;;;14.37;86.23;95558.66;5110676;27;20094;-72
2021/10/23 08:46:36;;;;;;;34.22;17.65;;;;;;;14.44;86.66;95559.28;5090073;28;20109;-74
2021/10/23 08:49:04;;;;;;;30.25;15.30;;;;;;;14.53;86.98;95565.72;5105115;27;20113;-74
2021/10/23 08:51:33;;;;;;;20.40;11.80;;;;;;;14.66;85.98;95560.22;5111790;27;20032;-74
2021/10/23 08:54:00;;;;;;;24.23;14.27;;;;;;;14.68;85.69;95566.03;5113002;27;20047;-74
2021/10/23 08:56:34;;;;;;;20.30;11.63;;;;;;;14.79;84.70;95561.72;5112988;27;20045;-74
2021/10/23 08:59:00;;;;;;;22.60;11.70;;;;;;;14.87;83.21;95555.28;5108865;27;20119;-73
2021/10/23 09:01:27;;;;;;;19.67;11.52;;;;;;;14.97;82.54;95567.78;5102965;27;20039;-74
2021/10/23 09:03:55;;;;;;;23.15;13.73;;;;;;;15.06;81.62;95572.34;5108364;27;20116;-73
2021/10/23 09:06:33;;;;;;;29.05;15.25;;;;;;;15.19;81.98;95573.06;5106421;27;20535;-73
2021/10/23 09:09:04;;;;;;;30.48;15.68;;;;;;;15.24;82.64;95578.38;5107656;27;20047;-74
2021/10/23 09:11:35;;;;;;;26.00;14.68;;;;;;;15.53;82.35;95575.59;5104279;27;20047;-73
2021/10/23 09:14:27;;;;;;;25.90;14.73;;;;;;;15.74;80.75;95572.22;5106082;27;20052;-74
2021/10/23 09:17:00;;;;;;;24.90;12.80;;;;;;;15.85;79.61;95579.16;5090790;28;20104;-74
2021/10/23 09:19:36;;;;;;;27.90;12.98;;;;;;;15.93;79.59;95558.75;5101477;27;20097;-74
2021/10/23 09:22:05;;;;;;;24.65;12.25;;;;;;;16.17;77.69;95569.78;5102435;27;20047;-73
2021/10/23 09:24:33;;;;;;;22.38;11.88;;;;;;;16.31;78.14;95554.41;5099553;27;20055;-73
2021/10/23 09:27:18;;;;;;;22.45;10.95;;;;;;;16.67;76.85;95557.34;5098260;28;20044;-73
2021/10/23 09:29:53;;;;;;;20.23;10.07;;;;;;;16.78;76.05;95546.66;5110670;28;20036;-73
2021/10/23 09:32:20;;;;;;;18.80;9.13;;;;;;;16.91;74.42;95542.81;5107816;28;20048;-73
2021/10/23 09:34:47;;;;;;;16.55;9.15;;;;;;;17.03;74.49;95549.72;5111189;28;20043;-73
2021/10/23 09:37:14;;;;;;;14.63;9.65;;;;;;;16.91;75.61;95548.09;5108729;28;20665;-73
2021/10/23 09:39:41;;;;;;;14.88;8.98;;;;;;;17.07;75.46;95553.44;5107909;28;20036;-73
2021/10/23 09:42:19;;;;;;;18.00;9.80;;;;;;;17.10;74.56;95550.31;5104165;28;20435;-74
2021/10/23 09:45:03;;;;;;;19.13;9.40;;;;;;;17.20;74.76;95547.75;5107285;28;20043;-74
2021/10/23 09:47:48;;;;;;;19.17;10.00;;;;;;;17.38;74.19;95547.31;5104217;28;20041;-74
2021/10/23 09:50:20;;;;;;;17.77;10.20;;;;;;;17.51;72.88;95553.16;5104023;28;20842;-73
2021/10/23 09:52:54;;;;;;;20.75;10.48;;;;;;;17.53;73.55;95543.16;5106708;28;20035;-74
2021/10/23 09:55:22;;;;;;;18.15;9.95;;;;;;;17.65;74.44;95550.84;5102498;28;20045;-74
2021/10/23 09:58:14;;;;;;;16.65;9.68;;;;;;;17.68;72.63;95530.06;5106957;28;20119;-74
2021/10/23 10:00:47;;;;;;;21.58;10.70;;;;;;;17.89;73.13;95552.00;5104150;28;20068;-74
2021/10/23 10:03:16;;;;;;;16.30;8.85;;;;;;;17.98;71.92;95554.94;5106189;28;20120;-74
2021/10/23 10:05:44;;;;;;;19.70;9.02;;;;;;;18.09;72.38;95545.97;5108892;28;20039;-73
2021/10/23 10:08:13;;;;;;;19.50;10.45;;;;;;;18.23;71.72;95535.72;5108275;28;20047;-74
2021/10/23 10:10:43;;;;;;;12.05;7.82;;;;;;;18.45;69.11;95542.63;5107010;28;20039;-72
2021/10/23 10:13:13;;;;;;;14.00;7.95;;;;;;;18.81;68.10;95532.88;5090227;28;20039;-71
2021/10/23 10:15:46;;;;;;;19.23;9.00;;;;;;;19.09;67.20;95536.00;5108776;27;20123;-72
2021/10/23 10:18:15;;;;;;;19.95;9.68;;;;;;;19.33;66.50;95536.22;5105399;27;20054;-72
2021/10/23 10:20:44;;;;;;;11.55;7.88;;;;;;;19.46;65.76;95540.94;5103740;27;20039;-73
2021/10/23 10:23:39;;;;;;;13.63;8.35;;;;;;;19.53;64.61;95530.06;5084342;27;20052;-73
2021/10/23 10:26:19;;;;;;;12.73;7.82;;;;;;;19.60;64.46;95530.56;5106969;27;20070;-73
2021/10/23 10:29:28;;;;;;;13.93;7.72;;;;;;;19.58;64.81;95532.69;5112032;27;20043;-71
2021/10/23 10:32:16;;;;;;;12.38;7.47;;;;;;;19.39;65.30;95540.44;5115878;27;20031;-73
2021/10/23 10:34:54;;;;;;;13.63;8.55;;;;;;;19.25;65.28;95534.13;5110935;27;20048;-74
2021/10/23 10:42:53;;;;;;;16.17;8.70;;;;;;;19.02;66.59;95531.00;5108023;27;20083;-74
2021/10/23 10:45:52;;;;;;;12.95;8.15;;;;;;;18.98;65.98;95531.78;5109351;27;20044;-74
2021/10/23 10:48:37;;;;;;;14.43;9.32;;;;;;;18.71;66.50;95540.78;5101718;27;20036;-74
2021/10/23 10:51:04;;;;;;;10.40;7.32;;;;;;;18.45;67.39;95543.41;5099238;27;20118;-75
2021/10/23 10:53:33;;;;;;;13.25;8.20;;;;;;;18.26;67.72;95542.34;5098068;27;20123;-74
2021/10/23 10:55:59;;;;;;;13.45;7.57;;;;;;;17.94;69.12;95545.97;5102005;27;20039;-76
2021/10/23 10:58:45;;;;;;;14.27;8.95;;;;;;;17.81;70.25;95543.78;5104890;27;20392;-76
2021/10/23 11:01:39;;;;;;;12.85;8.00;;;;;;;17.66;71.36;95547.94;5087931;27;20409;-75
2021/10/23 11:04:07;;;;;;;9.85;6.70;;;;;;;17.50;72.50;95549.72;5098911;27;20063;-74
2021/10/23 11:06:49;;;;;;;11.90;7.25;;;;;;;17.52;72.35;95546.81;5084810;27;20665;-75
2021/10/23 11:09:15;;;;;;;10.13;7.20;;;;;;;17.52;72.47;95544.19;5109369;27;20036;-73
2021/10/23 11:14:24;;;;;;;13.30;6.47;;;;;;;17.47;72.38;95544.19;5110758;27;20072;-74
2021/10/23 11:17:13;;;;;;;13.90;7.28;;;;;;;17.46;72.36;95542.59;5108493;27;20048;-74
2021/10/23 11:19:43;;;;;;;9.88;6.03;;;;;;;17.50;72.48;95554.19;5091122;27;20043;-75
2021/10/23 11:22:13;;;;;;;13.57;7.32;;;;;;;17.47;72.35;95546.81;5105928;27;20117;-74
2021/10/23 11:24:48;;;;;;;13.90;7.97;;;;;;;17.49;72.52;95552.63;5107165;27;20027;-74
2021/10/23 11:27:47;;;;;;;12.02;6.40;;;;;;;17.48;72.75;95545.75;5104488;27;20056;-74
2021/10/23 11:30:17;;;;;;;11.27;7.32;;;;;;;17.58;73.56;95545.81;5109200;27;20031;-74
2021/10/23 11:32:51;;;;;;;11.82;7.57;;;;;;;17.56;73.32;95547.91;5107020;27;20032;-75
2021/10/23 11:35:33;;;;;;;15.63;8.10;;;;;;;17.55;73.99;95548.94;5103258;27;20143;-74